createdAt,value
2023-05-07T00:04:37.899Z,33.83
2023-05-07T00:09:42.062Z,33.03
2023-05-07T00:14:46.966Z,33.55
2023-05-07T00:19:51.634Z,28.73
2023-05-07T00:24:55.608Z,28.50
2023-05-07T00:29:59.463Z,30.10
2023-05-07T00:35:03.632Z,30.80
2023-05-07T00:40:09.819Z,29.58
2023-05-07T00:45:15.042Z,31.15
2023-05-07T00:50:20.760Z,31.05
2023-05-07T00:55:25.888Z,26.35
2023-05-07T01:00:29.871Z,24.33
2023-05-07T01:05:34.476Z,25.55
2023-05-07T01:10:38.788Z,23.55
2023-05-07T01:15:42.993Z,23.48
2023-05-07T01:20:47.436Z,22.90
2023-05-07T01:25:56.062Z,20.55
2023-05-07T01:31:05.826Z,21.42
2023-05-07T01:36:13.652Z,35.28
2023-05-07T01:41:17.679Z,26.30
2023-05-07T01:46:22.242Z,24.70
2023-05-07T01:51:26.709Z,19.55
2023-05-07T01:56:30.545Z,19.65
2023-05-07T02:01:34.922Z,37.50
2023-05-07T02:06:38.929Z,18.27
2023-05-07T02:11:44.880Z,23.08
2023-05-07T02:16:49.987Z,18.00
2023-05-07T02:21:54.772Z,20.02
2023-05-07T02:26:58.712Z,22.40
2023-05-07T02:32:03.040Z,23.00
2023-05-07T02:37:07.212Z,19.65
2023-05-07T02:42:11.358Z,20.52
2023-05-07T02:47:17.115Z,20.17
2023-05-07T02:52:22.463Z,19.15
2023-05-07T02:57:26.610Z,19.98
2023-05-07T03:02:32.982Z,20.23
2023-05-07T03:07:38.279Z,20.23
2023-05-07T03:12:42.445Z,20.70
2023-05-07T03:17:48.733Z,20.85
2023-05-07T03:22:52.690Z,21.65
2023-05-07T03:27:56.755Z,22.35
2023-05-07T03:33:05.288Z,20.80
2023-05-07T03:38:09.790Z,22.50
2023-05-07T03:43:15.072Z,22.48
2023-05-07T03:48:24.039Z,23.80
2023-05-07T03:53:29.801Z,23.52
2023-05-07T03:58:33.987Z,22.77
2023-05-07T04:03:43.490Z,25.30
2023-05-07T04:08:47.628Z,25.63
2023-05-07T04:13:52.043Z,23.35
2023-05-07T04:18:59.674Z,23.67
2023-05-07T04:24:05.959Z,23.80
2023-05-07T04:29:10.258Z,23.98
2023-05-07T04:34:14.713Z,22.08
2023-05-07T04:39:19.511Z,22.77
2023-05-07T04:44:26.746Z,21.15
2023-05-07T04:49:31.703Z,21.33
2023-05-07T04:54:37.289Z,19.08
2023-05-07T04:59:42.255Z,18.95
2023-05-07T05:04:46.801Z,16.65
2023-05-07T05:09:50.949Z,16.92
2023-05-07T05:14:55.532Z,19.58
2023-05-07T05:19:59.474Z,17.60
2023-05-07T05:25:03.776Z,18.67
2023-05-07T05:30:08.652Z,14.07
2023-05-07T05:35:13.964Z,15.13
2023-05-07T05:40:19.267Z,17.27
2023-05-07T05:45:24.277Z,17.02
2023-05-07T05:50:28.180Z,16.27
2023-05-07T05:55:34.490Z,17.65
2023-05-07T06:00:38.591Z,18.27
2023-05-07T06:05:44.288Z,17.83
2023-05-07T06:10:49.074Z,20.27
2023-05-07T06:15:53.278Z,18.38
2023-05-07T06:20:57.329Z,18.70
2023-05-07T06:26:05.271Z,18.92
2023-05-07T06:31:22.159Z,16.92
2023-05-07T06:36:34.266Z,15.15
2023-05-07T06:41:42.841Z,15.77
2023-05-07T06:46:58.681Z,13.88
2023-05-07T06:52:02.710Z,13.07
2023-05-07T06:57:07.518Z,13.57
2023-05-07T07:02:11.396Z,12.63
2023-05-07T07:07:16.286Z,14.50
2023-05-07T07:12:24.571Z,15.68
2023-05-07T07:17:28.723Z,18.25
2023-05-07T07:22:32.866Z,19.52
2023-05-07T07:27:38.681Z,19.30
2023-05-07T07:32:42.859Z,19.13
2023-05-07T07:37:46.898Z,19.50
2023-05-07T07:42:52.344Z,21.05
2023-05-07T07:47:56.710Z,20.23
2023-05-07T07:53:02.079Z,19.33
2023-05-07T07:58:07.176Z,19.08
2023-05-07T08:03:12.653Z,20.35
2023-05-07T08:08:22.091Z,20.23
2023-05-07T08:13:26.894Z,19.73
2023-05-07T08:18:31.656Z,21.05
2023-05-07T08:23:38.644Z,19.77
2023-05-07T08:28:43.022Z,20.80
2023-05-07T08:33:47.453Z,22.08
2023-05-07T08:38:51.663Z,20.75
2023-05-07T08:43:59.761Z,20.95
2023-05-07T08:49:04.763Z,21.65
2023-05-07T08:54:09.269Z,22.48
2023-05-07T08:59:13.708Z,21.35
2023-05-07T09:04:19.198Z,23.40
2023-05-07T09:09:24.595Z,26.65
2023-05-07T09:14:35.082Z,25.38
2023-05-07T09:19:40.323Z,25.23
2023-05-07T09:24:50.701Z,24.55
2023-05-07T09:29:57.692Z,25.08
2023-05-07T09:35:01.588Z,24.35
2023-05-07T09:40:08.547Z,25.58
2023-05-07T09:45:13.032Z,24.70
2023-05-07T09:50:21.669Z,24.88
2023-05-07T09:55:26.283Z,24.30
2023-05-07T10:00:32.301Z,46.78
2023-05-07T10:05:46.494Z,32.80
2023-05-07T10:10:51.877Z,27.65
2023-05-07T10:16:00.374Z,27.25
2023-05-07T10:21:23.549Z,27.90
2023-05-07T10:26:33.049Z,28.23
2023-05-07T10:32:14.601Z,29.95
2023-05-07T10:37:19.992Z,27.67
2023-05-07T10:42:24.277Z,28.30
2023-05-07T10:47:31.274Z,30.42
2023-05-07T10:52:38.726Z,31.17
2023-05-07T10:57:51.277Z,30.48
2023-05-07T11:03:09.041Z,36.60
2023-05-07T11:08:19.857Z,34.10
2023-05-07T11:13:48.577Z,33.63
2023-05-07T11:19:57.026Z,34.33
2023-05-07T11:25:10.894Z,33.33
2023-05-07T11:30:22.713Z,33.75
2023-05-07T11:35:28.199Z,63.38
2023-05-07T11:40:32.819Z,61.63
2023-05-07T11:45:37.044Z,52.63
2023-05-07T11:51:02.123Z,84.85
2023-05-07T11:56:17.154Z,98.97
2023-05-07T12:01:21.216Z,51.25
2023-05-07T12:06:25.190Z,57.85
2023-05-07T12:11:29.060Z,47.65
2023-05-07T12:16:33.669Z,77.80
2023-05-07T12:21:37.966Z,47.75
2023-05-07T12:26:42.746Z,52.60
2023-05-07T12:31:46.896Z,51.40
2023-05-07T12:36:50.924Z,40.25
2023-05-07T12:42:03.204Z,36.17
2023-05-07T12:47:07.227Z,34.17
2023-05-07T12:52:13.448Z,34.75
2023-05-07T12:57:22.648Z,40.28
2023-05-07T13:02:36.385Z,36.08
2023-05-07T13:07:42.272Z,42.22
2023-05-07T13:12:46.758Z,37.28
2023-05-07T13:17:50.837Z,37.15
2023-05-07T13:22:55.082Z,38.13
2023-05-07T13:28:09.511Z,36.88
2023-05-07T13:33:16.039Z,45.95
2023-05-07T13:38:20.006Z,37.20
2023-05-07T13:43:24.132Z,36.35
2023-05-07T13:48:28.155Z,49.28
2023-05-07T13:53:32.312Z,62.72
2023-05-07T13:58:44.866Z,58.05
2023-05-07T14:03:57.812Z,57.60
2023-05-07T14:09:01.920Z,54.65
2023-05-07T14:14:05.830Z,44.35
2023-05-07T14:19:09.765Z,34.88
2023-05-07T14:24:15.821Z,37.15
2023-05-07T14:29:26.329Z,48.03
2023-05-07T14:34:30.360Z,59.65
2023-05-07T14:39:34.509Z,62.90
2023-05-07T14:44:38.306Z,63.22
2023-05-07T14:49:45.232Z,51.65
2023-05-07T14:54:49.257Z,47.63
2023-05-07T14:59:53.380Z,43.00
2023-05-07T15:04:57.459Z,57.75
2023-05-07T15:10:01.444Z,65.57
2023-05-07T15:15:08.168Z,72.70
2023-05-07T15:20:12.226Z,55.58
2023-05-07T15:25:16.957Z,55.28
2023-05-07T15:30:22.585Z,50.50
2023-05-07T15:35:27.533Z,48.05
2023-05-07T15:40:34.133Z,56.00
2023-05-07T15:45:43.325Z,51.28
2023-05-07T15:50:47.465Z,58.33
2023-05-07T15:55:51.491Z,65.75
2023-05-07T16:00:55.461Z,70.00
2023-05-07T16:06:01.648Z,81.28
2023-05-07T16:11:05.707Z,75.07
2023-05-07T16:16:09.658Z,69.20
2023-05-07T16:21:13.783Z,76.85
2023-05-07T16:26:18.741Z,77.22
2023-05-07T16:31:22.713Z,86.78
2023-05-07T16:36:32.654Z,86.70
2023-05-07T16:41:37.134Z,82.68
2023-05-07T16:46:41.253Z,65.30
2023-05-07T16:51:47.103Z,68.03
2023-05-07T16:56:51.476Z,75.40
2023-05-07T17:01:56.984Z,81.28
2023-05-07T17:07:01.834Z,71.88
2023-05-07T17:12:06.589Z,71.60
2023-05-07T17:17:10.515Z,71.75
2023-05-07T17:22:14.452Z,75.57
2023-05-07T17:27:18.470Z,75.22
2023-05-07T17:32:22.824Z,76.78
2023-05-07T17:37:27.613Z,73.53
2023-05-07T17:42:32.625Z,82.00
2023-05-07T17:47:36.904Z,83.20
2023-05-07T17:52:42.642Z,89.55
2023-05-07T17:57:46.564Z,79.15
2023-05-07T18:02:53.311Z,86.68
2023-05-07T18:07:57.706Z,61.22
2023-05-07T18:13:01.787Z,61.15
2023-05-07T18:18:06.492Z,66.00
2023-05-07T18:23:10.335Z,67.32
2023-05-07T18:28:14.358Z,68.35
2023-05-07T18:33:18.454Z,78.78
2023-05-07T18:38:22.377Z,56.25
2023-05-07T18:43:26.520Z,55.72
2023-05-07T18:48:30.308Z,54.22
2023-05-07T18:53:34.314Z,42.10
2023-05-07T18:58:38.368Z,48.72
2023-05-07T19:03:42.379Z,39.33
2023-05-07T19:08:46.424Z,46.75
2023-05-07T19:13:50.825Z,42.97
2023-05-07T19:18:54.890Z,46.50
2023-05-07T19:23:59.015Z,55.33
2023-05-07T19:29:16.652Z,69.10
2023-05-07T19:34:22.018Z,66.57
2023-05-07T19:39:26.332Z,58.40
2023-05-07T19:44:30.306Z,56.10
2023-05-07T19:49:34.324Z,56.53
2023-05-07T19:54:38.332Z,54.75
2023-05-07T19:59:42.117Z,55.67
2023-05-07T20:04:46.307Z,57.13
2023-05-07T20:09:50.390Z,55.78
2023-05-07T20:14:54.614Z,48.10
2023-05-07T20:19:58.692Z,48.95
2023-05-07T20:25:06.946Z,41.80
2023-05-07T20:30:11.704Z,45.17
2023-05-07T20:35:16.062Z,48.65
2023-05-07T20:40:20.148Z,48.95
2023-05-07T20:45:24.176Z,51.03
2023-05-07T20:50:28.540Z,47.00
2023-05-07T20:55:32.386Z,44.58
2023-05-07T21:00:36.648Z,47.92
2023-05-07T21:05:40.473Z,48.97
2023-05-07T21:10:44.823Z,45.30
2023-05-07T21:15:49.037Z,48.70
2023-05-07T21:20:52.851Z,46.83
2023-05-07T21:25:56.683Z,48.65
2023-05-07T21:31:00.473Z,46.45
2023-05-07T21:36:04.801Z,44.35
2023-05-07T21:41:08.872Z,43.92
2023-05-07T21:46:12.762Z,43.50
2023-05-07T21:51:16.994Z,40.67
2023-05-07T21:56:20.802Z,43.85
2023-05-07T22:01:24.909Z,40.65
2023-05-07T22:06:28.983Z,45.40
2023-05-07T22:11:32.964Z,42.88
2023-05-07T22:16:37.287Z,42.88
2023-05-07T22:21:41.806Z,42.45
2023-05-07T22:26:46.075Z,45.15
2023-05-07T22:32:30.370Z,35.45
2023-05-07T22:37:34.211Z,42.53
2023-05-07T22:42:38.271Z,40.40
2023-05-07T22:47:42.173Z,37.03
2023-05-07T22:52:46.116Z,40.25
2023-05-07T22:57:50.007Z,39.85
2023-05-07T23:02:54.087Z,39.28
2023-05-07T23:07:59.186Z,40.85
2023-05-07T23:13:03.413Z,39.58
2023-05-07T23:18:07.803Z,39.40
2023-05-07T23:23:12.050Z,40.60
2023-05-07T23:28:16.195Z,39.78
2023-05-07T23:33:20.265Z,39.60
2023-05-07T23:38:24.456Z,39.08
2023-05-07T23:43:28.482Z,38.88
2023-05-07T23:48:32.218Z,39.05
2023-05-07T23:53:36.869Z,37.95
2023-05-07T23:58:40.627Z,37.83
